Time;durP1;ratioP1;P1;durP2;ratioP2;P2;SDS_P1;SDS_P2;PMS_P1;PMS_P2;Temp;Humidity;BMP_temperature;BMP_pressure;BME280_temperature;BME280_humidity;BME280_pressure;Samples;Min_cycle;Max_cycle;Signal;HPM_P1;HPM_P2
2023/05/28 00:01:03;;;;;;;16.77;3.83;;;12.50;99.90;;;;;;4946789;28;20050;-69
2023/05/28 00:03:31;;;;;;;13.50;4.25;;;12.50;99.90;;;;;;4946027;28;20345;-69
2023/05/28 00:05:57;;;;;;;15.23;3.65;;;12.50;99.90;;;;;;4961689;28;20047;-69
2023/05/28 00:08:23;;;;;;;;;;;12.50;99.90;;;;;;4952032;28;20035;-69
2023/05/28 00:10:49;;;;;;;13.27;4.00;;;12.50;99.90;;;;;;4941129;28;19919;-69
2023/05/28 00:13:17;;;;;;;15.52;3.72;;;12.50;99.90;;;;;;4936196;28;20167;-69
2023/05/28 00:15:44;;;;;;;10.43;3.80;;;12.50;99.90;;;;;;4942375;28;20079;-69
2023/05/28 00:18:14;;;;;;;8.95;3.78;;;12.50;99.90;;;;;;4938927;28;20047;-69
2023/05/28 00:20:40;;;;;;;20.60;4.18;;;12.50;99.90;;;;;;4960266;28;20506;-69
2023/05/28 00:23:05;;;;;;;15.50;3.67;;;12.50;99.90;;;;;;4926023;28;20054;-69
2023/05/28 00:25:31;;;;;;;13.00;4.38;;;12.40;99.90;;;;;;4950996;28;20050;-69
2023/05/28 00:27:57;;;;;;;11.00;4.40;;;12.40;99.90;;;;;;4965856;28;20141;-69
2023/05/28 00:30:24;;;;;;;22.53;10.47;;;12.40;99.90;;;;;;4959905;28;20274;-69
2023/05/28 00:32:50;;;;;;;15.40;7.40;;;12.40;99.90;;;;;;4951277;28;20046;-69
2023/05/28 00:35:16;;;;;;;10.38;5.22;;;12.40;99.90;;;;;;4943644;28;20062;-69
2023/05/28 00:37:41;;;;;;;11.07;4.25;;;12.40;99.90;;;;;;4946986;28;20242;-69
2023/05/28 00:40:07;;;;;;;10.30;4.23;;;12.40;99.90;;;;;;4960103;28;20588;-69
2023/05/28 00:42:33;;;;;;;10.02;3.97;;;12.40;99.90;;;;;;4949567;28;20497;-69
2023/05/28 00:45:00;;;;;;;11.45;3.63;;;12.40;99.90;;;;;;4962754;28;20051;-69
2023/05/28 00:47:26;;;;;;;8.85;4.18;;;12.40;99.90;;;;;;4943322;28;20054;-69
2023/05/28 00:49:55;;;;;;;14.15;4.50;;;12.40;99.90;;;;;;4958635;28;20047;-69
2023/05/28 00:52:21;;;;;;;11.23;3.70;;;12.40;99.90;;;;;;4995264;22;20038;-68
2023/05/28 00:54:49;;;;;;;15.25;4.10;;;12.40;99.90;;;;;;4979742;28;20416;-68
2023/05/28 00:57:15;;;;;;;12.20;4.47;;;12.40;99.90;;;;;;4989743;28;20062;-68
2023/05/28 00:59:42;;;;;;;15.10;3.80;;;12.30;99.90;;;;;;4985712;28;20115;-69
2023/05/28 01:02:08;;;;;;;12.50;3.97;;;12.30;99.90;;;;;;4988403;28;20054;-68
2023/05/28 01:04:34;;;;;;;13.02;4.07;;;12.30;99.90;;;;;;4975445;28;20059;-71
2023/05/28 01:07:01;;;;;;;8.83;3.50;;;12.20;99.90;;;;;;4983157;28;20449;-71
2023/05/28 01:09:27;;;;;;;12.98;4.00;;;12.20;99.90;;;;;;4979281;28;20416;-71
2023/05/28 01:11:54;;;;;;;13.93;4.45;;;12.20;99.90;;;;;;4986310;28;20038;-71
2023/05/28 01:14:20;;;;;;;12.20;5.03;;;12.10;99.90;;;;;;4986411;28;20178;-71
2023/05/28 01:16:48;;;;;;;13.18;3.92;;;12.10;99.90;;;;;;4985848;28;20137;-68
2023/05/28 01:19:18;;;;;;;12.68;4.50;;;12.10;99.90;;;;;;5001079;28;20050;-69
2023/05/28 01:21:45;;;;;;;10.88;3.60;;;12.00;99.90;;;;;;4971607;28;20583;-68
2023/05/28 01:24:15;;;;;;;11.20;4.05;;;12.00;99.90;;;;;;4975185;28;20042;-68
2023/05/28 01:26:42;;;;;;;10.57;4.22;;;12.00;99.90;;;;;;4986376;28;20145;-68
2023/05/28 01:29:15;;;;;;;15.05;4.63;;;12.00;99.90;;;;;;4978107;28;20515;-69
2023/05/28 01:31:40;;;;;;;20.85;5.32;;;12.00;99.90;;;;;;4979243;28;20085;-68
2023/05/28 01:34:06;;;;;;;14.32;4.78;;;12.00;99.90;;;;;;4982732;28;20114;-68
2023/05/28 01:36:38;;;;;;;7.10;3.47;;;12.00;99.90;;;;;;4982521;28;20073;-69
2023/05/28 01:39:04;;;;;;;13.15;4.88;;;11.90;99.90;;;;;;4984566;28;20090;-69
2023/05/28 01:41:30;;;;;;;15.63;4.40;;;11.90;99.90;;;;;;4965529;28;20054;-69
2023/05/28 01:43:57;;;;;;;16.67;4.07;;;11.90;99.90;;;;;;4976354;28;20046;-68
2023/05/28 01:46:24;;;;;;;15.75;4.10;;;11.90;99.90;;;;;;4985101;28;20414;-69
2023/05/28 01:48:50;;;;;;;11.88;3.88;;;11.90;99.90;;;;;;4978541;28;20038;-69
2023/05/28 01:51:17;;;;;;;10.52;4.13;;;11.90;99.90;;;;;;4983910;28;20710;-69
2023/05/28 01:53:42;;;;;;;;;;;11.90;99.90;;;;;;4980606;28;20428;-69
2023/05/28 01:56:08;;;;;;;10.77;3.38;;;11.90;99.90;;;;;;4971039;28;20029;-69
2023/05/28 01:58:33;;;;;;;11.93;3.80;;;11.90;99.90;;;;;;4982904;28;20043;-69
2023/05/28 02:01:27;;;;;;;21.37;4.03;;;11.90;99.90;;;;;;4979545;28;20057;-69
2023/05/28 02:03:53;;;;;;;14.18;3.92;;;11.90;99.90;;;;;;4978417;28;20112;-69
2023/05/28 02:06:19;;;;;;;;;;;12.00;99.90;;;;;;4977746;28;20097;-69
2023/05/28 02:08:45;;;;;;;12.95;4.25;;;12.00;99.90;;;;;;4984677;28;20320;-69
2023/05/28 02:11:10;;;;;;;9.13;4.03;;;11.90;99.90;;;;;;4986337;28;20038;-68
2023/05/28 02:13:36;;;;;;;7.03;3.03;;;12.00;99.90;;;;;;4997145;28;20117;-69
2023/05/28 02:16:02;;;;;;;12.87;4.00;;;12.00;99.90;;;;;;4985708;28;20050;-69
2023/05/28 02:18:27;;;;;;;9.33;4.37;;;11.90;99.90;;;;;;4984043;28;20402;-69
2023/05/28 02:20:53;;;;;;;16.77;3.90;;;12.00;99.90;;;;;;4983053;28;20196;-69
2023/05/28 02:23:18;;;;;;;13.07;4.60;;;12.00;99.90;;;;;;4984789;28;20026;-69
2023/05/28 02:25:44;;;;;;;10.83;3.40;;;12.00;99.90;;;;;;4977358;28;20143;-69
2023/05/28 02:28:10;;;;;;;9.65;3.78;;;12.00;99.90;;;;;;4984989;28;20034;-68
2023/05/28 02:30:36;;;;;;;14.55;3.95;;;12.00;99.90;;;;;;4980146;28;20511;-69
2023/05/28 02:33:03;;;;;;;12.32;3.80;;;12.00;99.90;;;;;;4985387;28;20039;-68
2023/05/28 02:35:28;;;;;;;10.90;3.42;;;11.90;99.90;;;;;;4987396;28;20153;-69
2023/05/28 02:37:54;;;;;;;9.37;4.33;;;11.90;99.90;;;;;;4991262;28;20140;-69
2023/05/28 02:40:20;;;;;;;10.57;4.10;;;11.90;99.90;;;;;;4984316;28;20386;-69
2023/05/28 02:42:45;;;;;;;12.98;3.92;;;11.90;99.90;;;;;;4982013;28;20130;-69
2023/05/28 02:45:11;;;;;;;12.43;3.70;;;11.80;99.90;;;;;;4994563;28;20058;-69
2023/05/28 02:47:37;;;;;;;8.90;3.70;;;11.90;99.90;;;;;;4988057;28;20523;-69
2023/05/28 02:50:03;;;;;;;10.57;3.57;;;11.90;99.90;;;;;;4985203;28;20144;-69
2023/05/28 02:52:28;;;;;;;13.15;4.25;;;11.90;99.90;;;;;;4982912;28;20042;-69
2023/05/28 02:54:54;;;;;;;11.80;4.07;;;11.90;99.90;;;;;;4987108;28;20547;-69
2023/05/28 02:57:19;;;;;;;15.90;4.40;;;11.90;99.90;;;;;;4987237;28;20064;-69
2023/05/28 02:59:45;;;;;;;10.43;3.30;;;11.90;99.90;;;;;;4987994;28;20049;-69
2023/05/28 03:02:11;;;;;;;16.77;3.80;;;11.90;99.90;;;;;;4977966;28;20176;-69
2023/05/28 03:04:36;;;;;;;12.37;3.67;;;11.90;99.90;;;;;;4985205;28;20070;-69
2023/05/28 03:07:02;;;;;;;8.57;3.08;;;11.90;99.90;;;;;;4990479;28;20171;-69
2023/05/28 03:09:28;;;;;;;12.32;3.58;;;11.80;99.90;;;;;;4987144;28;20053;-69
2023/05/28 03:11:54;;;;;;;9.83;3.53;;;11.80;99.90;;;;;;4987278;28;20054;-69
2023/05/28 03:14:19;;;;;;;8.90;4.07;;;11.80;99.90;;;;;;4979563;28;20057;-69
2023/05/28 03:16:45;;;;;;;12.23;4.17;;;11.80;99.90;;;;;;4988925;28;20076;-68
2023/05/28 03:19:11;;;;;;;12.10;3.93;;;11.80;99.90;;;;;;4991599;28;20061;-69
2023/05/28 03:21:36;;;;;;;11.57;3.85;;;11.80;99.90;;;;;;4989612;28;20637;-69
2023/05/28 03:24:02;;;;;;;8.40;4.40;;;11.80;99.90;;;;;;4983325;28;20054;-69
2023/05/28 03:26:28;;;;;;;9.82;3.63;;;11.70;99.90;;;;;;4983605;28;20049;-69
2023/05/28 03:28:53;;;;;;;13.23;4.47;;;11.80;99.90;;;;;;4986272;28;20387;-69
2023/05/28 03:31:20;;;;;;;9.70;4.43;;;11.70;99.90;;;;;;4984560;28;20544;-69
2023/05/28 03:33:45;;;;;;;;;;;11.80;99.90;;;;;;4985712;28;20413;-68
2023/05/28 03:36:11;;;;;;;11.90;4.20;;;11.70;99.90;;;;;;4986135;28;19936;-69
2023/05/28 03:38:37;;;;;;;12.00;4.22;;;11.70;99.90;;;;;;4983407;28;20051;-68
2023/05/28 03:41:02;;;;;;;9.55;4.07;;;11.80;99.90;;;;;;4982786;28;20046;-69
2023/05/28 03:43:30;;;;;;;10.90;4.93;;;11.80;99.90;;;;;;4979730;28;20069;-69
2023/05/28 03:45:55;;;;;;;12.55;4.10;;;11.70;99.90;;;;;;4988552;28;20395;-68
2023/05/28 03:48:21;;;;;;;8.97;3.90;;;11.70;99.90;;;;;;4992651;28;20125;-69
2023/05/28 03:50:46;;;;;;;9.60;3.70;;;11.70;99.90;;;;;;5005957;28;20038;-69
2023/05/28 03:53:12;;;;;;;18.73;4.60;;;11.70;99.90;;;;;;4983407;28;20495;-69
2023/05/28 03:55:38;;;;;;;10.87;3.97;;;11.70;99.90;;;;;;4978849;28;20073;-68
2023/05/28 03:58:04;;;;;;;17.10;4.70;;;11.70;99.90;;;;;;4987842;28;20284;-69
2023/05/28 04:00:29;;;;;;;7.13;3.57;;;11.70;99.90;;;;;;4988530;28;20073;-68
2023/05/28 04:02:55;;;;;;;7.83;3.73;;;11.70;99.90;;;;;;4991961;28;20462;-69
2023/05/28 04:05:21;;;;;;;10.60;3.90;;;11.70;99.90;;;;;;4988290;28;20191;-69
2023/05/28 04:07:46;;;;;;;12.80;3.57;;;11.70;99.90;;;;;;4979908;28;20046;-69
2023/05/28 04:10:12;;;;;;;8.37;3.93;;;11.70;99.90;;;;;;4976933;28;20366;-69
2023/05/28 04:12:37;;;;;;;14.10;3.73;;;11.60;99.90;;;;;;4984716;28;20752;-69
2023/05/28 04:15:04;;;;;;;14.70;4.37;;;11.60;99.90;;;;;;4984370;28;20049;-69
2023/05/28 04:17:29;;;;;;;10.50;4.57;;;11.60;99.90;;;;;;4983923;28;20043;-69
2023/05/28 04:19:55;;;;;;;9.77;3.30;;;11.70;99.90;;;;;;4985411;28;20092;-69
2023/05/28 04:22:23;;;;;;;10.13;3.90;;;11.70;99.90;;;;;;4983357;28;20053;-69
2023/05/28 04:24:51;;;;;;;15.77;4.65;;;11.70;99.90;;;;;;4987511;28;20296;-69
2023/05/28 04:27:17;;;;;;;19.55;5.05;;;11.80;99.90;;;;;;4980851;28;20128;-69
2023/05/28 04:29:43;;;;;;;12.85;4.47;;;11.70;99.90;;;;;;4983395;28;20210;-69
2023/05/28 04:32:09;;;;;;;;;;;11.80;99.90;;;;;;4983369;28;20058;-69
2023/05/28 04:34:36;;;;;;;9.27;3.50;;;11.80;99.90;;;;;;4980981;28;19922;-69
2023/05/28 04:37:04;;;;;;;13.13;4.95;;;11.80;99.90;;;;;;4981526;28;20140;-69
2023/05/28 04:39:30;;;;;;;8.82;3.40;;;11.80;99.90;;;;;;4981287;28;20076;-70
2023/05/28 04:41:55;;;;;;;14.43;3.85;;;11.80;99.90;;;;;;4986364;28;20034;-69
2023/05/28 04:44:25;;;;;;;14.30;4.17;;;11.80;99.90;;;;;;4968159;28;20748;-69
2023/05/28 04:46:51;;;;;;;15.88;4.50;;;11.80;99.90;;;;;;4987631;28;20733;-69
2023/05/28 04:49:17;;;;;;;;;;;11.90;99.90;;;;;;4982972;28;20157;-69
2023/05/28 04:51:43;;;;;;;11.48;4.10;;;11.90;99.90;;;;;;4984914;28;19918;-69
2023/05/28 04:54:08;;;;;;;12.30;4.38;;;11.90;99.90;;;;;;4991165;28;20396;-69
2023/05/28 04:56:36;;;;;;;10.40;3.75;;;11.90;99.90;;;;;;4979326;28;20122;-69
2023/05/28 04:59:04;;;;;;;14.93;4.07;;;12.00;99.90;;;;;;4968039;28;20053;-69
2023/05/28 05:01:33;;;;;;;11.50;3.72;;;12.00;99.90;;;;;;4988706;28;20042;-69
2023/05/28 05:04:00;;;;;;;9.25;3.58;;;12.00;99.90;;;;;;4988886;28;20141;-69
2023/05/28 05:06:25;;;;;;;;;;;12.00;99.90;;;;;;4990892;28;20093;-69
2023/05/28 05:08:51;;;;;;;13.90;3.80;;;12.00;99.90;;;;;;4985033;28;19918;-69
2023/05/28 05:11:16;;;;;;;12.03;3.77;;;12.00;99.90;;;;;;4983212;28;20072;-68
2023/05/28 05:13:42;;;;;;;11.50;4.23;;;12.00;99.90;;;;;;4982466;28;20057;-68
2023/05/28 05:16:08;;;;;;;12.43;5.13;;;12.00;99.90;;;;;;4986767;28;20065;-68
2023/05/28 05:18:33;;;;;;;14.57;5.07;;;12.10;99.90;;;;;;4987222;28;20279;-68
2023/05/28 05:21:00;;;;;;;13.33;4.20;;;12.10;99.90;;;;;;4987070;28;20070;-68
2023/05/28 05:23:25;;;;;;;;;;;12.10;99.90;;;;;;4985925;28;20419;-68
2023/05/28 05:25:51;;;;;;;13.75;3.95;;;12.10;99.90;;;;;;4988375;28;20028;-68
2023/05/28 05:28:17;;;;;;;10.73;4.20;;;12.20;99.90;;;;;;4982785;28;20133;-68
2023/05/28 05:30:43;;;;;;;9.40;3.73;;;12.30;99.90;;;;;;4985657;28;20093;-71
2023/05/28 05:33:09;;;;;;;12.80;4.25;;;12.30;99.90;;;;;;4985269;28;20288;-70
2023/05/28 05:35:34;;;;;;;12.52;4.85;;;12.40;99.90;;;;;;4986411;28;20052;-68
2023/05/28 05:38:00;;;;;;;12.47;3.83;;;12.50;99.90;;;;;;4988084;28;20461;-68
2023/05/28 05:40:27;;;;;;;8.23;3.90;;;12.50;99.90;;;;;;4988313;28;20145;-68
2023/05/28 05:42:52;;;;;;;8.90;3.58;;;12.60;99.90;;;;;;4985632;28;20043;-68
2023/05/28 05:45:18;;;;;;;13.85;3.88;;;12.60;99.90;;;;;;4986670;28;20055;-68
2023/05/28 05:47:44;;;;;;;10.67;4.27;;;12.70;99.90;;;;;;4990537;28;20079;-68
2023/05/28 05:50:12;;;;;;;12.30;4.00;;;12.90;99.90;;;;;;4990279;28;20056;-68
2023/05/28 05:52:37;;;;;;;11.73;3.50;;;12.80;99.90;;;;;;4997736;28;20042;-71
2023/05/28 05:55:03;;;;;;;13.23;3.78;;;12.90;99.90;;;;;;4990529;28;20441;-71
2023/05/28 05:57:29;;;;;;;12.23;3.78;;;12.90;99.90;;;;;;4986598;28;20528;-71
2023/05/28 05:59:54;;;;;;;8.27;3.47;;;13.00;99.90;;;;;;4985184;28;20078;-69
2023/05/28 06:02:20;;;;;;;8.33;3.80;;;13.10;99.90;;;;;;4989995;28;20038;-69
2023/05/28 06:04:46;;;;;;;9.25;3.30;;;13.10;99.90;;;;;;4990527;28;20038;-69
2023/05/28 06:07:11;;;;;;;11.47;3.33;;;13.20;99.90;;;;;;4993500;28;20049;-69
2023/05/28 06:09:37;;;;;;;11.03;3.77;;;13.30;99.90;;;;;;4987924;28;20038;-69
2023/05/28 06:12:03;;;;;;;11.67;3.83;;;13.30;99.90;;;;;;4989438;28;20295;-69
2023/05/28 06:14:29;;;;;;;10.13;3.22;;;13.40;99.90;;;;;;4993088;28;20036;-69
2023/05/28 06:16:54;;;;;;;8.77;2.88;;;13.50;99.90;;;;;;4985218;28;20057;-69
2023/05/28 06:19:21;;;;;;;10.37;3.10;;;13.60;99.90;;;;;;5004559;28;20049;-69
2023/05/28 06:21:46;;;;;;;;;;;13.70;99.90;;;;;;4990926;28;20765;-69
2023/05/28 06:24:12;;;;;;;7.57;3.33;;;13.70;99.90;;;;;;4993325;28;19926;-68
2023/05/28 06:26:37;;;;;;;8.63;2.80;;;13.80;99.90;;;;;;4998088;28;20092;-68
2023/05/28 06:29:05;;;;;;;5.30;2.57;;;13.80;99.90;;;;;;4991356;28;20283;-69
2023/05/28 06:31:30;;;;;;;9.15;3.53;;;13.90;99.90;;;;;;4993682;28;20033;-68
2023/05/28 06:33:56;;;;;;;10.73;3.83;;;14.00;99.90;;;;;;4987456;28;20042;-68
2023/05/28 06:36:22;;;;;;;10.85;3.70;;;14.00;99.90;;;;;;4989508;28;20579;-69
2023/05/28 06:38:48;;;;;;;14.10;3.17;;;14.10;99.90;;;;;;4984876;28;20153;-69
2023/05/28 06:41:13;;;;;;;12.17;3.50;;;14.20;99.90;;;;;;4993229;28;20324;-69
2023/05/28 06:43:39;;;;;;;7.82;3.28;;;14.30;99.90;;;;;;4971474;28;20146;-69
2023/05/28 06:46:05;;;;;;;7.45;3.50;;;14.30;99.90;;;;;;4987759;28;20428;-68
2023/05/28 06:48:30;;;;;;;10.38;3.28;;;14.40;99.90;;;;;;4986693;28;20346;-68
2023/05/28 06:50:57;;;;;;;18.67;4.30;;;14.40;99.90;;;;;;4992330;28;20049;-68
2023/05/28 06:55:50;;;;;;;9.38;3.33;;;14.60;99.90;;;;;;4967033;28;19921;-72
2023/05/28 06:58:16;;;;;;;8.60;3.37;;;14.70;99.90;;;;;;4964695;28;20524;-71
2023/05/28 07:00:41;;;;;;;7.28;3.38;;;14.70;99.90;;;;;;4967733;28;20030;-72
2023/05/28 07:03:08;;;;;;;11.80;4.00;;;14.80;99.90;;;;;;4962141;28;20038;-71
2023/05/28 07:05:35;;;;;;;8.20;3.35;;;14.80;99.90;;;;;;4969318;28;20046;-72
2023/05/28 07:08:01;;;;;;;10.73;3.10;;;14.90;99.90;;;;;;4965741;28;20161;-72
2023/05/28 07:10:27;;;;;;;15.07;3.50;;;14.90;99.90;;;;;;4980991;28;20120;-72
2023/05/28 07:12:53;;;;;;;7.72;3.20;;;15.00;99.90;;;;;;4965600;28;20078;-71
2023/05/28 07:15:18;;;;;;;10.90;3.30;;;15.00;99.90;;;;;;4980015;28;20042;-71
2023/05/28 07:17:44;;;;;;;10.70;2.77;;;15.10;99.90;;;;;;4967256;28;20353;-71
2023/05/28 07:20:11;;;;;;;10.82;3.20;;;15.10;99.90;;;;;;4966425;28;20456;-71
2023/05/28 07:22:36;;;;;;;7.00;3.00;;;15.20;99.90;;;;;;4979845;28;20046;-71
2023/05/28 07:25:02;;;;;;;7.72;3.20;;;15.20;99.90;;;;;;4965159;28;20043;-71
2023/05/28 07:27:28;;;;;;;9.40;3.30;;;15.30;99.90;;;;;;4970287;28;20447;-71
2023/05/28 07:29:56;;;;;;;7.53;2.75;;;15.30;99.90;;;;;;4967930;28;20117;-72
2023/05/28 07:32:21;;;;;;;9.02;2.33;;;15.30;99.90;;;;;;4957804;28;20042;-71
2023/05/28 07:34:47;;;;;;;6.75;2.60;;;15.30;99.90;;;;;;4964409;28;20377;-71
2023/05/28 07:37:12;;;;;;;11.05;3.00;;;15.40;99.90;;;;;;4980714;28;20336;-72
2023/05/28 07:39:38;;;;;;;8.82;2.28;;;15.50;99.90;;;;;;4963056;28;20043;-72
2023/05/28 07:42:04;;;;;;;5.00;2.60;;;15.50;99.90;;;;;;4978625;28;20056;-72
2023/05/28 07:44:29;;;;;;;5.88;2.80;;;15.60;99.90;;;;;;4962947;28;20547;-72
2023/05/28 07:46:55;;;;;;;9.68;3.40;;;15.60;99.90;;;;;;4958923;28;20086;-72
2023/05/28 07:49:21;;;;;;;5.65;2.53;;;15.70;99.90;;;;;;4958694;28;20050;-72
2023/05/28 07:51:46;;;;;;;13.25;2.58;;;15.80;99.90;;;;;;4977321;28;20047;-71
2023/05/28 07:54:12;;;;;;;7.13;2.67;;;15.90;99.90;;;;;;4972511;28;20508;-72
2023/05/28 07:56:38;;;;;;;8.82;2.63;;;15.90;99.90;;;;;;4977518;28;20055;-72
2023/05/28 07:59:04;;;;;;;5.88;2.45;;;16.00;99.90;;;;;;4961121;28;20500;-72
2023/05/28 08:01:30;;;;;;;6.47;2.13;;;16.10;99.90;;;;;;4973490;28;20043;-72
2023/05/28 08:03:56;;;;;;;6.40;1.98;;;16.10;99.90;;;;;;4950593;28;20045;-72
2023/05/28 08:06:22;;;;;;;6.50;2.55;;;16.20;99.90;;;;;;4970472;28;20043;-71
2023/05/28 08:08:50;;;;;;;8.40;3.58;;;16.30;99.90;;;;;;4976222;28;20069;-72
2023/05/28 08:11:16;;;;;;;6.70;2.45;;;16.30;99.90;;;;;;4974491;28;20243;-71
2023/05/28 08:13:42;;;;;;;7.20;2.72;;;16.40;99.90;;;;;;4976012;28;20630;-72
2023/05/28 08:16:10;;;;;;;13.40;3.00;;;16.40;99.90;;;;;;4980140;28;20129;-72
2023/05/28 08:18:36;;;;;;;5.72;2.22;;;16.50;99.90;;;;;;4976386;28;20050;-72
2023/05/28 08:21:02;;;;;;;8.25;2.53;;;16.60;99.90;;;;;;4959242;28;20039;-72
2023/05/28 08:23:28;;;;;;;4.88;2.30;;;16.60;99.90;;;;;;4960052;28;20043;-72
2023/05/28 08:25:53;;;;;;;6.97;2.60;;;16.70;99.90;;;;;;4951222;28;20126;-72
2023/05/28 08:28:23;;;;;;;9.27;2.50;;;16.90;99.90;;;;;;4942283;28;20277;-71
2023/05/28 08:30:49;;;;;;;6.43;2.60;;;16.90;99.90;;;;;;4943825;28;20039;-72
2023/05/28 08:33:15;;;;;;;6.53;2.83;;;16.90;99.90;;;;;;4959810;28;20101;-72
2023/05/28 08:35:40;;;;;;;5.78;2.28;;;17.10;99.90;;;;;;4968721;28;20046;-71
2023/05/28 08:38:06;;;;;;;12.52;2.88;;;17.20;99.90;;;;;;4983379;28;20088;-71
2023/05/28 08:40:42;;;;;;;5.53;2.25;;;17.20;99.90;;;;;;4960089;28;20046;-71
2023/05/28 08:43:08;;;;;;;5.10;2.42;;;17.30;99.90;;;;;;4956906;28;20386;-72
2023/05/28 08:45:35;;;;;;;7.97;3.15;;;17.30;99.90;;;;;;4957329;28;20109;-73
2023/05/28 08:48:00;;;;;;;;;;;17.40;99.90;;;;;;4954197;28;20038;-71
2023/05/28 08:50:27;;;;;;;5.72;2.55;;;17.50;99.90;;;;;;4972337;28;20025;-72
2023/05/28 08:52:54;;;;;;;7.38;2.92;;;17.60;99.90;;;;;;4959378;28;20046;-72
2023/05/28 08:55:20;;;;;;;8.75;3.53;;;17.60;99.90;;;;;;4957405;28;20065;-72
2023/05/28 08:57:46;;;;;;;10.18;3.03;;;17.80;99.90;;;;;;4971767;28;20047;-72
2023/05/28 09:00:12;;;;;;;7.18;3.30;;;17.90;99.90;;;;;;4981567;28;20488;-72
2023/05/28 09:02:39;;;;;;;7.03;3.10;;;17.90;99.90;;;;;;4978667;28;20043;-72
2023/05/28 09:05:05;;;;;;;;;;;18.00;99.90;;;;;;4968306;28;20089;-71
2023/05/28 09:07:33;;;;;;;5.93;2.80;;;18.10;99.90;;;;;;4964946;28;19925;-72
2023/05/28 09:10:03;;;;;;;6.00;2.63;;;18.10;99.90;;;;;;4966358;28;20357;-72
2023/05/28 09:12:31;;;;;;;5.75;2.78;;;18.20;99.90;;;;;;4984052;28;20039;-72
2023/05/28 09:14:57;;;;;;;7.93;3.42;;;18.30;99.90;;;;;;4982718;28;20043;-72
2023/05/28 09:17:39;;;;;;;9.48;4.28;;;18.50;99.90;;;;;;4971553;28;20058;-71
2023/05/28 09:20:12;;;;;;;10.35;3.58;;;18.60;99.90;;;;;;4953876;28;20051;-72
2023/05/28 09:22:38;;;;;;;8.52;3.65;;;18.60;99.90;;;;;;4959416;28;20105;-72
2023/05/28 09:25:09;;;;;;;8.88;3.33;;;18.70;99.90;;;;;;4952633;28;20452;-73
2023/05/28 09:27:36;;;;;;;7.18;4.00;;;18.70;99.90;;;;;;4953005;28;20067;-72
2023/05/28 09:30:08;;;;;;;7.55;3.30;;;18.80;99.90;;;;;;4953758;28;20062;-72
2023/05/28 09:32:35;;;;;;;7.05;3.58;;;18.90;99.90;;;;;;4958598;28;20061;-72
2023/05/28 09:35:01;;;;;;;8.35;3.80;;;19.00;99.90;;;;;;4961921;28;20107;-72
2023/05/28 09:37:30;;;;;;;7.93;4.35;;;19.10;99.90;;;;;;4964957;28;20094;-72
2023/05/28 09:40:09;;;;;;;8.32;3.80;;;19.20;98.70;;;;;;4960839;28;20043;-72
2023/05/28 09:42:39;;;;;;;8.75;4.30;;;19.20;98.40;;;;;;4959920;28;20065;-72
2023/05/28 09:45:07;;;;;;;12.68;4.22;;;19.20;98.70;;;;;;4977775;28;20038;-72
2023/05/28 09:47:33;;;;;;;9.10;4.25;;;19.30;98.60;;;;;;4961381;28;20047;-72
2023/05/28 09:49:58;;;;;;;13.73;4.53;;;19.40;97.10;;;;;;4964245;28;20584;-72
2023/05/28 09:52:27;;;;;;;9.43;4.25;;;19.40;97.30;;;;;;4958001;28;20050;-73
2023/05/28 09:54:55;;;;;;;9.27;4.50;;;19.50;97.90;;;;;;4961616;28;20050;-72
2023/05/28 09:57:30;;;;;;;11.85;4.78;;;19.60;97.30;;;;;;4976948;28;20047;-72
2023/05/28 09:59:56;;;;;;;9.25;4.80;;;19.80;97.10;;;;;;4958651;28;20065;-71
2023/05/28 10:02:50;;;;;;;9.88;4.43;;;19.90;93.50;;;;;;4958088;28;20505;-72
2023/05/28 10:05:18;;;;;;;10.93;5.50;;;19.90;92.60;;;;;;4956831;28;20058;-72
2023/05/28 10:07:45;;;;;;;10.32;4.53;;;20.00;91.60;;;;;;4962198;28;20570;-72
2023/05/28 10:10:13;;;;;;;12.02;5.15;;;20.00;88.50;;;;;;4960904;28;20066;-72
2023/05/28 10:12:39;;;;;;;9.57;5.22;;;20.10;87.80;;;;;;4939074;28;20126;-73
2023/05/28 10:15:06;;;;;;;;;;;20.10;87.10;;;;;;4968158;28;20097;-72
2023/05/28 10:17:32;;;;;;;8.70;4.85;;;20.20;85.20;;;;;;4959816;28;20336;-73
2023/05/28 10:19:58;;;;;;;8.98;4.63;;;20.30;86.30;;;;;;4956384;28;20058;-72
2023/05/28 10:22:24;;;;;;;11.27;5.03;;;20.40;89.10;;;;;;4961378;28;20039;-72
2023/05/28 10:24:50;;;;;;;12.80;5.20;;;20.50;85.30;;;;;;4973013;28;20071;-72
2023/05/28 10:27:16;;;;;;;9.55;4.30;;;20.50;87.10;;;;;;4962945;28;20097;-72
2023/05/28 10:29:44;;;;;;;8.75;4.05;;;20.60;84.40;;;;;;4960018;28;20088;-73
2023/05/28 10:32:13;;;;;;;6.88;3.45;;;20.70;80.50;;;;;;4965041;28;20075;-72
2023/05/28 10:34:38;;;;;;;6.85;3.38;;;20.70;79.60;;;;;;4963216;28;20046;-72
2023/05/28 10:37:07;;;;;;;6.88;3.47;;;20.70;77.60;;;;;;4961553;28;20039;-72
2023/05/28 10:39:43;;;;;;;6.90;3.20;;;20.70;75.70;;;;;;4967765;28;20125;-72
2023/05/28 10:42:13;;;;;;;7.82;3.20;;;20.80;74.20;;;;;;4959965;28;20051;-72
2023/05/28 10:45:00;;;;;;;7.25;2.40;;;20.90;73.10;;;;;;4958382;28;20145;-72
2023/05/28 10:47:31;;;;;;;;;;;21.10;71.50;;;;;;4964784;28;20051;-72
2023/05/28 10:50:13;;;;;;;8.07;2.80;;;21.20;73.70;;;;;;4975576;28;19924;-72
2023/05/28 10:52:39;;;;;;;5.38;2.28;;;21.20;68.70;;;;;;4974351;28;20415;-72
2023/05/28 10:55:12;;;;;;;6.85;2.50;;;21.20;69.50;;;;;;4960589;28;20044;-72
2023/05/28 10:57:44;;;;;;;7.82;2.03;;;21.20;69.30;;;;;;4937626;28;20087;-73
2023/05/28 11:00:14;;;;;;;5.32;2.15;;;21.20;70.70;;;;;;4972116;28;20419;-72
2023/05/28 11:02:42;;;;;;;6.03;2.17;;;21.40;72.20;;;;;;4981412;28;20051;-72
2023/05/28 11:05:08;;;;;;;7.20;2.28;;;21.50;72.00;;;;;;4963501;28;20043;-72
2023/05/28 11:07:41;;;;;;;7.63;2.70;;;21.60;71.20;;;;;;4962543;28;20385;-71
2023/05/28 11:10:15;;;;;;;5.47;2.13;;;21.60;71.20;;;;;;4967961;28;20051;-72
2023/05/28 11:12:42;;;;;;;8.52;2.10;;;21.60;72.90;;;;;;4983432;28;20051;-73
2023/05/28 11:15:12;;;;;;;7.82;2.00;;;21.70;73.40;;;;;;4958756;28;20047;-72
2023/05/28 11:17:45;;;;;;;6.22;2.42;;;21.80;72.60;;;;;;4978348;28;20050;-71
2023/05/28 11:20:17;;;;;;;6.90;2.13;;;21.90;73.50;;;;;;4983408;28;20093;-72
2023/05/28 11:22:42;;;;;;;8.85;2.33;;;21.90;75.00;;;;;;4960249;28;20493;-72
2023/05/28 11:25:09;;;;;;;;;;;22.00;76.00;;;;;;4965906;28;20038;-72
2023/05/28 11:27:36;;;;;;;5.95;2.47;;;22.00;75.30;;;;;;4965498;28;19922;-73
2023/05/28 11:30:14;;;;;;;5.20;1.77;;;22.10;75.70;;;;;;4956409;28;20051;-72
2023/05/28 11:32:40;;;;;;;5.30;1.60;;;22.10;77.10;;;;;;4981188;28;20492;-73
2023/05/28 11:35:09;;;;;;;6.60;1.50;;;22.10;76.80;;;;;;4960385;28;20554;-72
2023/05/28 11:37:35;;;;;;;9.88;2.20;;;22.10;74.50;;;;;;4964789;28;20102;-73
2023/05/28 11:40:05;;;;;;;5.10;1.90;;;22.00;73.30;;;;;;4960715;28;20073;-72
2023/05/28 11:42:31;;;;;;;4.55;1.95;;;21.90;74.70;;;;;;4959490;28;20043;-72
2023/05/28 11:44:57;;;;;;;;;;;22.00;77.30;;;;;;4961359;28;20049;-72
2023/05/28 11:47:24;;;;;;;6.30;1.95;;;22.00;78.90;;;;;;4941017;28;19922;-72
2023/05/28 11:49:50;;;;;;;6.05;2.08;;;22.10;78.00;;;;;;4963863;28;20042;-73
2023/05/28 11:52:18;;;;;;;6.00;2.30;;;22.20;78.50;;;;;;4961189;28;20293;-72
2023/05/28 11:54:47;;;;;;;10.77;2.42;;;22.20;78.10;;;;;;4961129;28;20050;-73
2023/05/28 11:57:24;;;;;;;4.78;2.13;;;22.20;80.90;;;;;;4963258;28;20047;-72
2023/05/28 12:00:11;;;;;;;8.90;2.38;;;22.20;78.60;;;;;;4978188;28;20137;-72
2023/05/28 12:02:48;;;;;;;5.53;1.90;;;22.10;79.70;;;;;;4965379;28;20596;-72
2023/05/28 12:05:18;;;;;;;7.05;2.60;;;22.20;80.60;;;;;;4966704;28;20395;-73
2023/05/28 12:07:50;;;;;;;7.07;2.55;;;22.20;81.10;;;;;;4961375;28;20541;-72
2023/05/28 12:10:19;;;;;;;8.50;2.63;;;22.20;81.20;;;;;;4961082;28;21020;-73
2023/05/28 12:12:55;;;;;;;7.47;2.47;;;22.20;81.60;;;;;;4959207;28;20094;-72
2023/05/28 12:15:23;;;;;;;7.70;2.40;;;22.20;81.80;;;;;;4955566;28;20098;-72
2023/05/28 12:17:54;;;;;;;6.50;2.13;;;22.20;81.80;;;;;;4962682;28;20132;-72
2023/05/28 12:20:19;;;;;;;7.60;2.20;;;22.20;81.80;;;;;;4966444;28;20047;-72
2023/05/28 12:22:45;;;;;;;;;;;22.10;81.50;;;;;;4979448;28;20059;-72
2023/05/28 12:25:11;;;;;;;7.82;1.88;;;22.00;83.60;;;;;;4957619;28;19918;-72
2023/05/28 12:27:36;;;;;;;;;;;22.10;84.20;;;;;;4972060;28;20081;-72
2023/05/28 12:30:03;;;;;;;10.32;2.42;;;22.10;82.00;;;;;;4980721;28;19925;-72
2023/05/28 12:32:29;;;;;;;7.05;3.13;;;22.10;82.90;;;;;;4965542;28;20038;-72
2023/05/28 12:34:56;;;;;;;;;;;22.00;83.60;;;;;;4950686;28;20051;-72
2023/05/28 12:37:25;;;;;;;6.00;2.33;;;22.00;83.90;;;;;;4959700;28;19919;-72
2023/05/28 12:39:51;;;;;;;4.35;2.15;;;21.90;83.90;;;;;;4954159;28;20273;-72
2023/05/28 12:42:17;;;;;;;5.25;2.08;;;21.90;83.50;;;;;;4974820;28;20219;-72
2023/05/28 12:44:43;;;;;;;7.70;2.75;;;21.90;84.00;;;;;;4960548;28;20044;-73
2023/05/28 12:47:12;;;;;;;;;;;21.90;83.80;;;;;;4956942;28;20410;-72
2023/05/28 12:49:37;;;;;;;6.07;1.75;;;21.80;84.70;;;;;;4973938;28;19945;-72